• Join FlightAware (Why Join?)
  • Login
  • US Flag 
06:03AM EST


 

Airport Tracker/Info


-or-


 

Live Flight TrackerFlight Track Log ✈ SKW6492 ✈ 12-Jul-2014 ✈ KDEN - KCOD

Flight Track Log - Related Links

Times and Time Zones

All times are in EDT time to prevent confusion due to time zone crossing. See the SKW6492 flight status page for this flight to view local times or setup timezone preferences in your user account.

Time Position Orientation Groundspeed Altitude Reporting Facility
EDT Latitude Longitude Course Direction KTS MPH feet Rate Location/Type
10:12PM 39.8333 -104.7333 348° North 246 283 7,800  Level Denver TRACON
10:14PM 40.1650 -104.7711 347° North  Level FlightAware Approximate
10:14PM 39.8667 -104.8333 294° West 291 335 9,900  Level Denver TRACON
10:15PM 40.2708 -104.8029 347° North  Level FlightAware Approximate
10:15PM 39.9000 -104.9167 298° West 290 334 11,000  Level Denver TRACON
10:16PM 40.3763 -104.8365 346° North  Level FlightAware Approximate
10:16PM 39.9986 -104.9550 343° North 310 357 13,300  Level Denver Center
10:17PM 40.4815 -104.8716 346° North  Level FlightAware Approximate
10:17PM 40.0869 -104.9436 North 317 365 15,200  Level Denver Center
10:18PM 40.5873 -104.9035 348° North  Level FlightAware Approximate
10:18PM 40.1822 -104.9314 North 342 394 16,800  Level Denver Center
10:19PM 40.2831 -104.9189 North 340 391 18,200 1,380 Climbing Denver Center
10:20PM 40.3831 -104.9053 North 360 414 19,700 1,080 Climbing Denver Center
10:21PM 40.4819 -104.8942 North 359 413 20,500 780 Climbing Denver Center
10:22PM 40.5883 -104.8733 North 372 428 21,300 780 Climbing Denver Center
10:23PM 40.6914 -104.8589 North 368 423 22,100 900 Climbing Denver Center
10:24PM 40.7978 -104.8514 North 379 436 23,200 960 Climbing Denver Center
10:25PM 40.8950 -104.9042 338° Northwest 375 432 24,100 900 Climbing Denver Center
10:26PM 40.9953 -104.9511 341° North 379 436 25,100 1,080 Climbing Denver Center
10:27PM 41.0936 -104.9986 340° North 379 436 26,300 900 Climbing Denver Center
10:28PM 41.2044 -105.0550 339° North 379 436 27,000 600 Climbing Denver Center
10:29PM 41.3022 -105.1025 340° North 386 444 27,600 600 Climbing Denver Center
10:30PM 41.4178 -105.1600 340° North 392 451 28,300 600 Climbing Denver Center
10:31PM 41.5183 -105.2103 339° North 397 457 28,900 480 Climbing Denver Center
10:32PM 41.6094 -105.2861 328° Northwest 413 475 29,400 600 Climbing Denver Center
10:33PM 41.7064 -105.3903 321° Northwest 404 465 30,200 720 Climbing Denver Center
10:34PM 41.7875 -105.4767 322° Northwest 394 453 30,900 720 Climbing Denver Center
10:35PM 41.8706 -105.5644 322° Northwest 393 452 31,700 540 Climbing Denver Center
10:36PM 41.9644 -105.6700 320° Northwest 394 453 32,000 120 Climbing Denver Center
10:37PM 42.0478 -105.7603 321° Northwest 397 457 32,000  Level Denver Center
10:38PM 42.1433 -105.8672 320° Northwest 399 459 32,000  Level Denver Center
10:39PM 42.2275 -105.9600 321° Northwest 404 465 32,000  Level Denver Center
10:40PM 42.3125 -106.0539 321° Northwest 408 470 32,000  Level Denver Center
10:41PM 42.4108 -106.1644 320° Northwest 409 471 32,000  Level Denver Center
10:42PM 42.4967 -106.2592 321° Northwest 414 476 32,000  Level Denver Center
10:43PM 42.5831 -106.3553 321° Northwest 417 480 32,000  Level Denver Center
10:44PM 42.6825 -106.4697 320° Northwest 419 482 32,000  Level Denver Center
10:45PM 42.7683 -106.5639 321° Northwest 414 476 32,000  Level Denver Center
10:46PM 42.8672 -106.6761 320° Northwest 414 476 32,000  Level Denver Center
10:47PM 42.9489 -106.7689 320° Northwest 403 464 32,000  Level Denver Center
10:48PM 43.0306 -106.8622 320° Northwest 402 463 32,000  Level Denver Center
10:49PM 43.1242 -106.9711 320° Northwest 396 456 32,000  Level Denver Center
10:50PM 43.1919 -107.0500 320° Northwest 396 456 32,000  Level Salt Lake Center
10:51PM 43.2922 -107.1661 320° Northwest 395 455 32,000  Level Salt Lake Center
10:52PM 43.3764 -107.2633 320° Northwest 395 455 32,000  Level Salt Lake Center
10:53PM 43.4606 -107.3628 319° Northwest 396 456 32,000  Level Salt Lake Center
10:54PM 43.5453 -107.4631 319° Northwest 400 460 32,000 -60 Level Salt Lake Center
10:56PM 43.6308 -107.5625 320° Northwest 402 463 31,900 -1,080 Descending Salt Lake Center
10:57PM 43.7186 -107.6672 319° Northwest 416 479 29,800 -2,160 Descending Salt Lake Center
10:58PM 43.8097 -107.7767 319° Northwest 431 496 27,600 -2,220 Descending Salt Lake Center
10:59PM 43.9036 -107.8883 319° Northwest 443 510 25,300 -2,280 Descending Salt Lake Center
11:00PM 43.9914 -107.9947 319° Northwest 424 488 23,000 -2,280 Descending Salt Lake Center
11:01PM 44.0653 -108.1014 314° West 389 448 20,700 -2,460 Descending Salt Lake Center
11:02PM 44.1531 -108.2367 312° West 389 448 18,000 -2,220 Descending Salt Lake Center
11:03PM 44.2233 -108.3450 312° West 388 447 16,300 -1,920 Descending Salt Lake Center
11:04PM 44.2900 -108.4486 312° West 376 433 14,100 -2,160 Descending Salt Lake Center
11:05PM 44.3550 -108.5503 312° West 364 419 12,000 -1,560 Descending Salt Lake Center
11:06PM 44.4186 -108.6472 313° West 353 406 11,000 -540 Descending Salt Lake Center
11:07PM 44.4722 -108.7292 313° West 320 368 10,900 -720 Descending Salt Lake Center
11:08PM 44.5258 -108.7906 321° Northwest 277 319 9,600 -1,200 Descending Salt Lake Center
11:09PM 44.5747 -108.8483 320° Northwest 254 292 8,500 -960 Descending Salt Lake Center
11:10PM 44.5864 -108.9117 285° West 232 267 7,700 -1,140 Descending Salt Lake Center
11:11PM 44.5531 -108.9675 230° Southwest 205 236 6,200 -960 Descending Salt Lake Center
11:12PM 44.5197 -109.0214 229° Southwest 191 220 5,800 -420 Descending Salt Lake Center